Osg Courageous — WDF7122 — position and weather

sailwx.info

Track history (hours):
 
Tides and Currents Weather Stations Pressure Air Temp Water Temp Dewpoint Dewpoint Depression Visibility Wind Speed Wind Dir Waves Ship Positions

Osg Courageous

Owner: OSG Ship Management, Inc, Tampa, FL. More information available from US FCC via Universal Licensing System and Coast Guard Vessel Documentation Center.

Last reported at 2016-May-21 05:33 UTC. Time now 2016-May-24 06:02 UTC.
Position N 25°48' W 080°03'.

Length 187 m; draft 7 m.

Type: Tanker. MMSI: 367481310.

Date/timePositionNaut miles runAvg speedWind from/ knotsBaromVisibWave heightAir tempDewpointWater temp
2016-May-21 05:33N 25°48' W 080°03'1110.7
2016-May-21 04:33N 25°58' W 080°03'1010.0
2016-May-21 03:33N 26°09' W 080°03'10 9.5
2016-May-21 02:33N 26°18' W 080°02'9 9.1
2016-May-21 01:33N 26°27' W 080°01'9 8.6
2016-May-21 00:33N 26°36' W 079°60'8 8.2
2016-May-20 23:32N 26°44' W 079°59'7 7.3
2016-May-20 22:33N 26°51' W 079°59'7 7.1
2016-May-20 21:33N 26°58' W 079°59'  
2016-May-18 02:34N 33°54' W 078°01'  
2016-May-15 13:18N 28°54' W 080°16'11011.3
2016-May-15 03:33N 27°05' W 079°59'1514.8
2016-May-15 02:34N 26°51' W 079°58'1414.4
2016-May-15 01:33N 26°36' W 079°58'1414.1
2016-May-15 00:33N 26°22' W 079°58'1313.3
2016-May-14 23:33N 26°09' W 079°59'1313.4
2016-May-14 22:33N 25°55' W 079°60'1413.9
2016-May-14 21:34N 25°42' W 079°60'  
2016-May-12 07:06N 29°44' W 089°60'611.4
2016-May-12 06:33N 29°50' W 089°59'5 5.5
2016-May-12 05:33N 29°56' W 089°59'8 8.5
2016-May-12 04:34N 29°57' W 090°08'  
Track history (hours):
 
Tides and Currents Weather Stations Pressure Air Temp Water Temp Dewpoint Dewpoint Depression Visibility Wind Speed Wind Dir Waves Ship Positions

Osg Courageous

Owner: OSG Ship Management, Inc, Tampa, FL. More information available from US FCC via Universal Licensing System and Coast Guard Vessel Documentation Center.

Last reported at 2016-May-21 05:33 UTC. Time now 2016-May-24 06:02 UTC.
Position N 25°48' W 080°03'.

Length 187 m; draft 7 m.

Type: Tanker. MMSI: 367481310.

Date/timePositionNaut miles runAvg speedWind from/ knotsBaromVisibWave heightAir tempDewpointWater temp
2016-May-21 05:33N 25°48' W 080°03'1110.7
2016-May-21 04:33N 25°58' W 080°03'1010.0
2016-May-21 03:33N 26°09' W 080°03'10 9.5
2016-May-21 02:33N 26°18' W 080°02'9 9.1
2016-May-21 01:33N 26°27' W 080°01'9 8.6
2016-May-21 00:33N 26°36' W 079°60'8 8.2
2016-May-20 23:32N 26°44' W 079°59'7 7.3
2016-May-20 22:33N 26°51' W 079°59'7 7.1
2016-May-20 21:33N 26°58' W 079°59'  
2016-May-18 02:34N 33°54' W 078°01'  
2016-May-15 13:18N 28°54' W 080°16'11011.3
2016-May-15 03:33N 27°05' W 079°59'1514.8
2016-May-15 02:34N 26°51' W 079°58'1414.4
2016-May-15 01:33N 26°36' W 079°58'1414.1
2016-May-15 00:33N 26°22' W 079°58'1313.3
2016-May-14 23:33N 26°09' W 079°59'1313.4
2016-May-14 22:33N 25°55' W 079°60'1413.9
2016-May-14 21:34N 25°42' W 079°60'  
2016-May-12 07:06N 29°44' W 089°60'611.4
2016-May-12 06:33N 29°50' W 089°59'5 5.5
2016-May-12 05:33N 29°56' W 089°59'8 8.5
2016-May-12 04:34N 29°57' W 090°08'  

Dump ship's entire track history